Time;durP1;ratioP1;P1;durP2;ratioP2;P2;SDS_P1;SDS_P2;PMS_P1;PMS_P2;Temp;Humidity;BMP_temperature;BMP_pressure;BME280_temperature;BME280_humidity;BME280_pressure;Samples;Min_cycle;Max_cycle;Signal;HPM_P1;HPM_P2
2021/04/23 00:02:06;;;;;;;16.73;13.18;;;;;;;11.18;73.10;100367.86;1709784;82;21165;-41
2021/04/23 00:04:34;;;;;;;13.40;12.05;;;;;;;11.19;73.20;100364.25;1706584;82;21149;-45
2021/04/23 00:07:03;;;;;;;15.03;13.53;;;;;;;11.21;73.13;100368.99;1714455;82;21142;-44
2021/04/23 00:09:33;;;;;;;13.65;12.25;;;;;;;11.20;72.98;100366.80;1709460;82;21158;-44
2021/04/23 00:12:11;;;;;;;13.40;11.93;;;;;;;11.18;72.82;100361.18;1711880;82;21169;-41
2021/04/23 00:14:47;;;;;;;13.95;12.63;;;;;;;11.17;72.76;100359.48;1712381;82;21180;-41
2021/04/23 00:17:16;;;;;;;13.50;11.78;;;;;;;11.17;72.82;100355.48;1702406;82;21177;-44
2021/04/23 00:19:45;;;;;;;13.98;12.55;;;;;;;11.18;72.78;100358.52;1708295;82;21146;-40
2021/04/23 00:22:13;;;;;;;14.23;12.80;;;;;;;11.18;72.79;100359.84;1713171;82;21185;-42
2021/04/23 00:24:41;;;;;;;13.25;11.22;;;;;;;11.18;72.81;100356.70;1710160;82;21590;-44
2021/04/23 00:27:08;;;;;;;13.72;12.30;;;;;;;11.18;72.85;100356.70;1702724;82;21628;-43
2021/04/23 00:29:36;;;;;;;13.65;12.25;;;;;;;11.17;72.94;100367.00;1711495;82;21165;-42
2021/04/23 00:34:51;;;;;;;13.20;11.60;;;;;;;11.15;73.16;100379.58;1656493;85;21213;-41
2021/04/23 00:37:19;;;;;;;14.07;12.68;;;;;;;11.15;73.35;100377.39;1714946;82;21582;-41
2021/04/23 00:39:46;;;;;;;14.15;12.18;;;;;;;11.15;73.56;100386.73;1711758;82;21610;-44
2021/04/23 00:42:14;;;;;;;14.07;11.48;;;;;;;11.16;73.70;100391.11;1710737;82;21145;-44
2021/04/23 00:44:42;;;;;;;13.22;11.83;;;;;;;11.15;73.76;100381.40;1710840;82;21169;-43
2021/04/23 00:47:11;;;;;;;15.25;11.63;;;;;;;11.14;73.74;100386.37;1717072;83;22164;-41
2021/04/23 00:49:39;;;;;;;13.43;11.63;;;;;;;11.13;73.91;100397.98;1707937;83;21775;-45
2021/04/23 00:52:07;;;;;;;14.53;11.30;;;;;;;11.13;74.10;100392.16;1631629;85;21141;-43
2021/04/23 00:54:34;;;;;;;12.03;10.72;;;;;;;11.15;74.30;100389.41;1711798;82;21166;-45
2021/04/23 00:57:04;;;;;;;11.83;10.63;;;;;;;11.14;74.52;100384.55;1714555;82;21158;-45
2021/04/23 00:59:32;;;;;;;12.18;10.50;;;;;;;11.15;74.68;100390.26;1715681;82;21315;-47
2021/04/23 01:02:07;;;;;;;11.55;10.45;;;;;;;11.16;74.89;100399.11;1711378;82;21157;-46
2021/04/23 01:04:34;;;;;;;11.57;10.38;;;;;;;11.16;74.99;100400.00;1709264;82;21129;-48
2021/04/23 01:07:02;;;;;;;10.20;8.98;;;;;;;11.15;75.11;100393.41;1714935;83;21180;-40
2021/04/23 01:09:30;;;;;;;10.68;9.48;;;;;;;11.15;75.21;100391.59;1683581;83;21187;-39
2021/04/23 01:11:59;;;;;;;9.58;8.68;;;;;;;11.18;75.36;100393.20;1714538;82;21173;-39
2021/04/23 01:14:27;;;;;;;9.40;8.43;;;;;;;11.17;75.42;100387.02;1720145;82;21176;-43
2021/04/23 01:16:55;;;;;;;9.75;8.70;;;;;;;11.17;75.51;100386.17;1705244;82;21127;-43
2021/04/23 01:19:25;;;;;;;10.45;7.72;;;;;;;11.16;75.62;100390.66;1708741;82;21145;-40
2021/04/23 01:21:53;;;;;;;9.28;7.72;;;;;;;11.16;75.63;100389.32;1700285;83;21152;-41
2021/04/23 01:24:21;;;;;;;9.73;8.38;;;;;;;11.17;75.67;100388.84;1704497;82;21162;-43
2021/04/23 01:26:52;;;;;;;9.40;8.40;;;;;;;11.18;75.72;100390.54;1701919;84;21284;-43
2021/04/23 01:29:20;;;;;;;9.83;8.80;;;;;;;11.19;75.71;100393.61;1698450;82;21165;-43
2021/04/23 01:31:53;;;;;;;11.28;9.35;;;;;;;11.19;75.73;100395.80;1702937;82;21179;-46
2021/04/23 01:34:27;;;;;;;10.70;9.60;;;;;;;11.18;75.72;100396.73;1696437;82;21170;-44
2021/04/23 01:36:55;;;;;;;11.03;9.35;;;;;;;11.19;75.77;100396.28;1697966;84;21570;-44
2021/04/23 01:39:25;;;;;;;11.15;9.95;;;;;;;11.20;75.79;100391.31;1697141;83;21597;-40
2021/04/23 01:41:54;;;;;;;8.85;7.95;;;;;;;11.21;75.79;100398.34;1698009;82;21640;-41
2021/04/23 01:44:22;;;;;;;9.90;8.38;;;;;;;11.20;75.80;100392.16;1701030;82;21162;-43
2021/04/23 01:46:50;;;;;;;9.98;8.98;;;;;;;11.21;75.75;100400.56;1697226;82;21154;-41
2021/04/23 01:49:19;;;;;;;11.38;9.60;;;;;;;11.21;75.78;100395.23;1702126;82;21197;-45
2021/04/23 01:51:55;;;;;;;11.40;9.03;;;;;;;11.21;75.78;100401.02;1701451;82;21141;-47
2021/04/23 01:54:24;;;;;;;12.07;9.90;;;;;;;11.19;75.81;100390.94;1700226;82;21937;-46
2021/04/23 01:56:52;;;;;;;11.73;9.23;;;;;;;11.19;75.90;100402.47;1708624;82;21157;-42
2021/04/23 01:59:20;;;;;;;10.45;9.23;;;;;;;11.19;75.90;100398.95;1702604;82;21158;-39
2021/04/23 02:01:47;;;;;;;10.05;9.05;;;;;;;11.19;75.89;100401.62;1708023;82;21287;-42
2021/04/23 02:04:16;;;;;;;12.35;9.18;;;;;;;11.17;75.93;100400.84;1703403;82;21475;-45
2021/04/23 02:06:47;;;;;;;;;;;;;;;11.16;75.99;100407.13;1705228;82;21159;-40
2021/04/23 02:09:15;;;;;;;12.37;10.20;;;;;;;11.12;76.09;100409.13;1700313;82;20172;-40
2021/04/23 02:11:44;;;;;;;10.40;9.30;;;;;;;11.09;76.13;100411.12;1697194;82;21388;-40
2021/04/23 02:14:12;;;;;;;10.93;9.83;;;;;;;11.07;76.21;100415.72;1682800;83;21130;-41
2021/04/23 02:16:42;;;;;;;11.95;9.75;;;;;;;11.04;76.26;100420.77;1701436;83;21182;-44
2021/04/23 02:19:11;;;;;;;13.80;10.00;;;;;;;11.02;76.31;100424.84;1698111;82;21173;-41
2021/04/23 02:21:39;;;;;;;13.70;10.68;;;;;;;11.00;76.31;100422.74;1693934;82;21261;-42
2021/04/23 02:24:07;;;;;;;11.60;9.13;;;;;;;11.00;76.36;100421.89;1703567;82;22083;-41
2021/04/23 02:26:36;;;;;;;11.85;9.58;;;;;;;10.97;76.38;100419.42;1713362;82;21125;-40
2021/04/23 02:29:13;;;;;;;13.78;10.18;;;;;;;11.00;76.40;100420.56;1714310;82;21137;-39
2021/04/23 02:31:45;;;;;;;13.30;9.50;;;;;;;10.98;76.37;100415.78;1711766;83;21157;-42
2021/04/23 02:34:15;;;;;;;11.85;10.03;;;;;;;10.96;76.47;100421.23;1714186;82;21133;-41
2021/04/23 02:36:43;;;;;;;13.62;10.32;;;;;;;10.97;76.53;100417.60;1717327;82;21153;-43
2021/04/23 02:39:13;;;;;;;12.75;10.28;;;;;;;10.97;76.56;100422.94;1712601;82;21585;-40
2021/04/23 02:41:44;;;;;;;14.95;10.60;;;;;;;10.97;76.68;100422.09;1706127;82;21578;-41
2021/04/23 02:44:12;;;;;;;11.53;9.03;;;;;;;10.95;76.75;100420.83;1712235;82;21145;-40
2021/04/23 02:46:41;;;;;;;11.25;8.88;;;;;;;10.93;76.86;100429.40;1713019;82;21162;-41
2021/04/23 02:49:09;;;;;;;11.80;9.15;;;;;;;10.93;77.04;100437.41;1713009;82;21149;-42
2021/04/23 02:51:41;;;;;;;10.40;9.10;;;;;;;10.90;77.12;100440.75;1711871;82;21656;-42
2021/04/23 02:54:09;;;;;;;10.60;9.50;;;;;;;10.87;77.31;100451.13;1710033;82;21141;-40
2021/04/23 02:56:37;;;;;;;10.45;8.73;;;;;;;10.85;77.54;100455.69;1715397;82;21145;-43
2021/04/23 02:59:06;;;;;;;9.93;8.45;;;;;;;10.84;77.69;100453.98;1712052;82;21144;-41
2021/04/23 03:01:40;;;;;;;10.23;9.18;;;;;;;10.82;77.91;100460.73;1712939;83;21149;-44
2021/04/23 03:04:09;;;;;;;9.63;7.25;;;;;;;10.80;78.09;100470.63;1723288;82;21157;-43
2021/04/23 03:06:36;;;;;;;7.72;6.50;;;;;;;10.60;75.89;100490.47;1713460;82;21122;-45
2021/04/23 03:09:08;;;;;;;9.73;6.10;;;;;;;10.33;72.19;100489.41;1714604;82;21162;-45
2021/04/23 03:11:38;;;;;;;8.78;6.03;;;;;;;10.02;72.50;100504.43;1707740;82;21157;-44
2021/04/23 03:14:05;;;;;;;6.35;4.90;;;;;;;9.68;72.05;100519.62;1709746;83;21153;-45
2021/04/23 03:16:33;;;;;;;6.90;5.25;;;;;;;9.41;72.53;100517.95;1714734;83;21189;-43
2021/04/23 03:19:01;;;;;;;6.05;4.90;;;;;;;9.21;72.12;100514.16;1709515;82;21153;-45
2021/04/23 03:21:30;;;;;;;8.20;4.50;;;;;;;9.08;72.18;100521.91;1708082;82;21126;-42
2021/04/23 03:23:58;;;;;;;5.70;5.10;;;;;;;8.96;72.46;100521.21;1707018;83;21150;-43
2021/04/23 03:26:26;;;;;;;5.42;4.70;;;;;;;8.91;72.49;100524.09;1682845;83;21245;-41
2021/04/23 03:28:54;;;;;;;9.83;4.90;;;;;;;8.87;72.77;100528.72;1712635;82;21175;-43
2021/04/23 03:31:21;;;;;;;5.72;4.45;;;;;;;8.81;72.18;100535.66;1716251;83;21173;-41
2021/04/23 03:33:49;;;;;;;7.15;5.25;;;;;;;8.74;72.12;100553.33;1713089;82;21185;-42
2021/04/23 03:36:17;;;;;;;6.33;4.97;;;;;;;8.63;71.88;100553.40;1710660;82;21173;-45
2021/04/23 03:38:46;;;;;;;8.05;4.80;;;;;;;8.58;72.15;100558.55;1707991;82;21140;-44
2021/04/23 03:41:19;;;;;;;5.25;4.55;;;;;;;8.51;72.07;100563.30;1710508;82;21588;-44
2021/04/23 03:43:47;;;;;;;6.92;3.90;;;;;;;8.46;72.19;100560.00;1709069;83;21157;-41
2021/04/23 03:46:15;;;;;;;6.90;4.28;;;;;;;8.42;72.42;100573.06;1728471;82;21656;-45
2021/04/23 03:48:43;;;;;;;9.28;4.92;;;;;;;8.31;71.96;100573.99;1715756;82;21641;-43
2021/04/23 03:51:12;;;;;;;6.47;4.65;;;;;;;8.25;72.12;100575.16;1714095;82;21137;-41
2021/04/23 03:53:40;;;;;;;6.80;4.15;;;;;;;8.19;72.70;100575.45;1714543;82;21921;-40
2021/04/23 03:56:08;;;;;;;7.28;3.77;;;;;;;8.10;72.33;100581.19;1713138;82;21118;-41
2021/04/23 03:58:36;;;;;;;10.10;4.75;;;;;;;8.03;72.65;100589.89;1714923;82;21141;-42
2021/04/23 04:01:08;;;;;;;7.35;4.72;;;;;;;7.96;73.20;100592.43;1711015;83;21149;-42
2021/04/23 04:03:36;;;;;;;5.83;3.80;;;;;;;7.88;73.39;100601.22;1710533;82;21162;-43
2021/04/23 04:06:05;;;;;;;5.97;4.30;;;;;;;7.73;74.09;100602.30;1715371;82;21601;-38
2021/04/23 04:08:32;;;;;;;6.03;3.70;;;;;;;7.64;74.66;100598.75;1714350;82;21125;-41
2021/04/23 04:11:02;;;;;;;6.55;4.53;;;;;;;7.59;75.59;100600.74;1704853;83;21187;-41
2021/04/23 04:13:29;;;;;;;5.58;4.05;;;;;;;7.51;76.74;100601.08;1710050;82;21149;-39
2021/04/23 04:15:58;;;;;;;6.08;4.03;;;;;;;7.51;76.74;100601.08;1707756;82;21150;-38
2021/04/23 04:18:26;;;;;;;7.17;4.35;;;;;;;7.51;77.46;100606.39;1708769;82;21167;-41
2021/04/23 04:20:54;;;;;;;5.50;3.92;;;;;;;7.44;77.62;100608.05;1669720;84;21585;-41
2021/04/23 04:23:21;;;;;;;7.22;4.42;;;;;;;7.36;78.34;100612.37;1724560;82;21153;-39
2021/04/23 04:25:55;;;;;;;5.83;4.40;;;;;;;7.36;78.34;100612.37;1715098;82;21632;-42
2021/04/23 04:28:28;;;;;;;9.95;5.42;;;;;;;7.33;78.44;100609.38;1701905;82;21170;-42
2021/04/23 04:30:56;;;;;;;7.22;4.15;;;;;;;7.33;78.44;100609.38;1694464;84;21122;-42
2021/04/23 04:33:26;;;;;;;7.30;4.53;;;;;;;7.31;78.77;100616.54;1693114;82;21606;-41
2021/04/23 04:35:53;;;;;;;9.88;4.35;;;;;;;7.32;78.78;100620.05;1698366;84;21166;-39
2021/04/23 04:38:21;;;;;;;6.47;4.20;;;;;;;7.34;78.90;100613.75;1698150;82;21660;-40
2021/04/23 04:40:49;;;;;;;6.72;3.98;;;;;;;7.38;78.94;100614.46;1697023;82;21166;-40
2021/04/23 04:43:19;;;;;;;5.47;4.62;;;;;;;7.36;78.35;100612.37;1658360;84;21169;-40
2021/04/23 04:45:47;;;;;;;6.78;4.60;;;;;;;7.36;78.59;100625.16;1636383;86;21166;-42
2021/04/23 04:48:16;;;;;;;6.17;4.35;;;;;;;7.34;78.60;100620.84;1660234;84;21184;-42
2021/04/23 04:50:48;;;;;;;6.40;4.97;;;;;;;7.29;78.85;100636.95;1664989;84;21165;-40
2021/04/23 04:53:16;;;;;;;6.40;4.75;;;;;;;7.27;78.90;100632.64;1654569;84;21185;-41
2021/04/23 04:55:46;;;;;;;8.05;4.03;;;;;;;7.21;78.87;100631.59;1655252;84;21539;-39
2021/04/23 04:58:17;;;;;;;5.97;4.40;;;;;;;7.21;78.87;100631.59;1657142;85;21153;-42
2021/04/23 05:00:45;;;;;;;9.60;4.77;;;;;;;7.20;79.00;100633.83;1662110;84;21146;-42
2021/04/23 05:03:13;;;;;;;8.93;4.87;;;;;;;7.19;79.47;100633.44;1658511;84;21173;-40
2021/04/23 05:05:42;;;;;;;6.83;4.15;;;;;;;7.23;79.77;100636.34;1660283;84;21146;-40
2021/04/23 05:08:10;;;;;;;7.65;4.78;;;;;;;7.25;80.06;100640.66;1659607;84;21185;-41
2021/04/23 05:10:38;;;;;;;7.80;4.30;;;;;;;7.25;80.06;100640.66;1656097;84;21154;-41
2021/04/23 05:13:05;;;;;;;5.67;3.77;;;;;;;7.29;80.09;100646.24;1699201;82;21153;-40
2021/04/23 05:15:33;;;;;;;5.78;3.92;;;;;;;7.34;80.16;100650.03;1695831;82;21187;-43
2021/04/23 05:18:01;;;;;;;6.15;4.37;;;;;;;7.35;80.01;100649.95;1697473;84;21146;-40
2021/04/23 05:20:28;;;;;;;7.70;4.40;;;;;;;7.34;80.11;100659.31;1699111;82;21660;-42
2021/04/23 05:22:57;;;;;;;13.05;3.95;;;;;;;7.31;79.85;100662.11;1699673;84;21146;-38
2021/04/23 05:25:25;;;;;;;8.28;4.87;;;;;;;7.26;79.71;100654.34;1695075;82;21708;-39
2021/04/23 05:27:55;;;;;;;6.33;4.05;;;;;;;7.36;80.45;100649.51;1706434;82;21173;-41
2021/04/23 05:30:26;;;;;;;9.03;4.75;;;;;;;7.58;81.37;100645.01;1710839;83;21146;-43
2021/04/23 05:32:54;;;;;;;6.28;4.08;;;;;;;7.72;80.27;100651.02;1707230;82;21173;-39
2021/04/23 05:35:23;;;;;;;7.00;4.12;;;;;;;7.79;79.25;100659.59;1709591;82;21621;-39
2021/04/23 05:37:51;;;;;;;6.47;4.50;;;;;;;7.81;79.02;100655.05;1707436;82;21165;-37
2021/04/23 05:40:24;;;;;;;5.37;3.35;;;;;;;7.82;79.26;100651.48;1710022;82;21157;-41
2021/04/23 05:42:52;;;;;;;10.28;4.58;;;;;;;7.89;79.43;100651.62;1707256;82;21114;-40
2021/04/23 05:45:22;;;;;;;5.35;3.98;;;;;;;7.98;79.16;100650.33;1711251;82;21679;-39
2021/04/23 05:47:50;;;;;;;7.83;4.47;;;;;;;7.95;77.94;100652.66;1708668;82;21541;-40
2021/04/23 05:50:18;;;;;;;9.15;4.25;;;;;;;7.94;78.15;100647.44;1713878;82;21150;-42
2021/04/23 05:52:45;;;;;;;6.45;4.37;;;;;;;7.94;78.28;100653.60;1711430;82;21161;-38
2021/04/23 05:55:16;;;;;;;5.08;4.03;;;;;;;7.94;77.81;100654.08;1711096;82;21138;-39
2021/04/23 05:57:45;;;;;;;4.55;3.55;;;;;;;7.96;77.55;100654.40;1708987;82;21144;-38
2021/04/23 06:00:18;;;;;;;7.67;4.45;;;;;;;8.00;77.27;100657.30;1711801;82;21165;-39
2021/04/23 06:02:49;;;;;;;6.65;3.87;;;;;;;8.07;77.24;100655.70;1707188;82;21149;-42
2021/04/23 06:05:18;;;;;;;6.33;3.60;;;;;;;8.14;76.91;100658.45;1711297;82;21142;-40
2021/04/23 06:07:46;;;;;;;5.25;3.45;;;;;;;8.21;76.52;100663.89;1715219;82;21125;-40
2021/04/23 06:10:14;;;;;;;6.70;4.00;;;;;;;8.28;75.97;100661.34;1709026;82;21149;-43
2021/04/23 06:12:42;;;;;;;7.17;4.47;;;;;;;8.36;76.23;100671.15;1709552;83;21162;-39
2021/04/23 06:15:13;;;;;;;6.45;3.62;;;;;;;8.45;76.00;100674.75;1712416;82;21163;-39
2021/04/23 06:17:41;;;;;;;8.23;3.85;;;;;;;8.57;75.96;100680.45;1707847;82;21153;-42
2021/04/23 06:20:13;;;;;;;9.28;4.72;;;;;;;8.59;73.87;100673.23;1711992;82;21137;-53
2021/04/23 06:22:41;;;;;;;4.97;3.17;;;;;;;8.54;73.29;100672.59;1709636;82;21343;-43
2021/04/23 06:25:12;;;;;;;5.75;3.62;;;;;;;8.50;72.90;100679.00;1707216;82;21171;-42
2021/04/23 06:27:43;;;;;;;6.22;3.65;;;;;;;8.41;72.75;100680.28;1707273;82;21171;-42
2021/04/23 06:30:22;;;;;;;5.67;3.37;;;;;;;8.39;72.90;100680.37;1705725;82;21133;-41
2021/04/23 06:32:50;;;;;;;4.22;3.02;;;;;;;8.35;72.69;100682.73;1703290;83;21161;-42
2021/04/23 06:35:20;;;;;;;5.70;3.70;;;;;;;8.28;71.11;100686.59;1708658;82;21125;-42
2021/04/23 06:37:48;;;;;;;6.05;3.27;;;;;;;8.20;71.70;100683.43;1704659;82;21169;-42
2021/04/23 06:40:16;;;;;;;5.75;3.47;;;;;;;8.16;71.82;100676.52;1704039;82;21197;-41
2021/04/23 06:46:48;;;;;;;4.83;3.30;;;;;;;8.21;72.06;100683.38;1666879;84;21142;-45
2021/04/23 06:49:15;;;;;;;9.03;4.60;;;;;;;8.33;73.31;100685.06;1649301;86;21177;-45
2021/04/23 06:51:50;;;;;;;6.90;4.08;;;;;;;8.53;72.80;100687.69;1796589;78;23378;-44
2021/04/23 06:54:18;;;;;;;5.47;3.80;;;;;;;8.60;72.07;100686.94;1772481;79;21565;-46
2021/04/23 06:56:47;;;;;;;6.15;3.27;;;;;;;8.75;72.32;100692.00;1775626;79;21802;-44
2021/04/23 06:59:15;;;;;;;7.60;4.80;;;;;;;8.99;72.43;100693.47;1776441;79;21636;-43
2021/04/23 07:01:43;;;;;;;6.67;4.10;;;;;;;9.19;71.58;100696.48;1777533;79;21162;-45
2021/04/23 07:04:11;;;;;;;5.92;3.40;;;;;;;9.28;70.71;100696.03;1777049;79;21295;-45
2021/04/23 07:06:41;;;;;;;5.70;3.60;;;;;;;9.33;70.04;100691.83;1777066;79;21612;-42
2021/04/23 07:09:08;;;;;;;6.28;4.35;;;;;;;9.36;70.08;100682.34;1777585;79;21169;-43
2021/04/23 07:11:36;;;;;;;10.40;4.40;;;;;;;9.37;69.60;100684.53;1773409;79;21577;-41
2021/04/23 07:14:04;;;;;;;6.50;4.40;;;;;;;9.31;69.94;100683.05;1777843;80;21142;-44
2021/04/23 07:16:32;;;;;;;7.05;4.28;;;;;;;9.22;69.36;100679.06;1779685;80;21121;-42
2021/04/23 07:19:00;;;;;;;6.12;3.70;;;;;;;9.16;69.40;100687.33;1775960;79;21137;-46
2021/04/23 07:21:28;;;;;;;7.92;4.25;;;;;;;9.25;69.67;100682.89;1776818;79;21577;-43
2021/04/23 07:23:56;;;;;;;6.72;4.60;;;;;;;9.38;69.50;100687.13;1777842;79;21298;-42
2021/04/23 07:26:25;;;;;;;7.12;4.37;;;;;;;9.48;69.11;100684.87;1777752;79;21166;-46
2021/04/23 07:28:52;;;;;;;5.17;3.27;;;;;;;9.51;67.95;100683.38;1770677;79;21195;-43
2021/04/23 07:31:20;;;;;;;8.33;4.42;;;;;;;9.43;67.27;100675.78;1698784;82;21164;-43
2021/04/23 07:33:48;;;;;;;9.78;4.12;;;;;;;9.43;68.18;100682.91;1703976;82;21176;-43
2021/04/23 07:36:15;;;;;;;6.08;3.98;;;;;;;9.47;68.55;100691.97;1702240;82;21159;-43
2021/04/23 07:38:48;;;;;;;7.35;4.03;;;;;;;9.51;68.51;100707.34;1702660;82;21137;-43
2021/04/23 07:41:18;;;;;;;5.15;3.80;;;;;;;9.58;67.84;100706.56;1595394;88;21200;-43
2021/04/23 07:43:45;;;;;;;8.63;4.47;;;;;;;9.60;67.29;100702.00;1591512;88;21355;-45
2021/04/23 07:46:14;;;;;;;5.30;3.62;;;;;;;9.67;67.72;100707.41;1580430;89;21811;-45
2021/04/23 07:48:42;;;;;;;5.92;3.83;;;;;;;9.75;66.98;100707.42;1586227;88;21351;-44
2021/04/23 07:51:11;;;;;;;7.72;3.75;;;;;;;9.79;66.26;100705.93;1572402;88;21335;-44
2021/04/23 07:53:39;;;;;;;7.62;4.58;;;;;;;9.79;65.78;100706.78;1579157;89;22239;-43
2021/04/23 07:56:07;;;;;;;9.75;3.72;;;;;;;9.77;64.70;100702.48;1612274;87;21202;-46
2021/04/23 07:58:35;;;;;;;8.33;4.30;;;;;;;9.64;64.08;100699.11;1608614;87;21331;-43
2021/04/23 08:01:02;;;;;;;6.00;3.58;;;;;;;9.51;62.74;100692.70;1610049;87;21314;-44
2021/04/23 08:03:32;;;;;;;7.58;3.35;;;;;;;9.41;63.21;100686.97;1609903;87;21867;-44
2021/04/23 08:06:00;;;;;;;8.13;3.90;;;;;;;9.39;64.46;100683.99;1612762;87;21164;-44
2021/04/23 08:08:30;;;;;;;7.58;4.42;;;;;;;9.36;63.72;100686.34;1610154;87;21685;-43
2021/04/23 08:10:58;;;;;;;7.65;4.03;;;;;;;9.36;64.31;100684.16;1617092;87;21169;-44
2021/04/23 08:13:26;;;;;;;6.55;4.33;;;;;;;9.39;64.07;100681.33;1693629;82;21190;-45
2021/04/23 08:15:55;;;;;;;4.97;3.70;;;;;;;9.40;63.60;100685.70;1664991;83;21161;-44
2021/04/23 08:18:23;;;;;;;10.72;3.98;;;;;;;9.41;63.89;100682.98;1694266;82;21169;-44
2021/04/23 08:20:53;;;;;;;7.33;4.08;;;;;;;9.45;63.84;100681.89;1663833;84;21711;-45
2021/04/23 08:23:22;;;;;;;7.53;4.53;;;;;;;9.53;63.18;100680.17;1699443;82;21153;-43
2021/04/23 08:25:56;;;;;;;5.78;3.80;;;;;;;9.56;63.93;100680.01;1696025;82;21186;-43
2021/04/23 08:28:21;;;;;;;4.17;3.08;;;;;;;9.59;63.76;100686.50;1693819;82;21118;-44
2021/04/23 08:30:50;;;;;;;7.15;4.05;;;;;;;9.65;63.67;100692.86;1695846;82;21506;-44
2021/04/23 08:33:18;;;;;;;8.53;4.45;;;;;;;9.73;63.05;100691.13;1696709;82;21162;-45
2021/04/23 08:35:46;;;;;;;8.33;4.37;;;;;;;9.77;63.06;100686.02;1694572;82;21146;-45
2021/04/23 08:38:14;;;;;;;6.35;4.03;;;;;;;9.79;62.14;100691.28;1698251;82;21122;-44
2021/04/23 08:40:43;;;;;;;6.35;4.10;;;;;;;9.78;62.38;100696.20;1697898;82;21153;-42
2021/04/23 08:43:10;;;;;;;6.60;4.90;;;;;;;9.84;63.11;100698.56;1697075;83;21161;-42
2021/04/23 08:45:38;;;;;;;7.83;4.50;;;;;;;9.85;62.52;100706.48;1696528;82;21174;-41
2021/04/23 08:48:08;;;;;;;7.00;4.50;;;;;;;9.80;62.75;100712.97;1697392;82;21154;-44
2021/04/23 08:50:36;;;;;;;7.62;4.35;;;;;;;9.79;63.34;100708.11;1705462;81;21122;-43
2021/04/23 08:53:06;;;;;;;8.58;4.22;;;;;;;9.82;63.43;100707.09;1724723;81;21117;-46
2021/04/23 08:55:35;;;;;;;7.78;4.28;;;;;;;9.85;63.78;100709.15;1728779;81;21172;-42
2021/04/23 09:02:24;;;;;;;5.55;3.85;;;;;;;10.04;62.90;100707.70;1581539;88;21654;-42
2021/04/23 09:05:07;;;;;;;8.33;5.10;;;;;;;10.24;61.96;100702.64;1755681;79;23949;-41
2021/04/23 09:07:40;;;;;;;7.72;3.72;;;;;;;10.26;61.31;100698.58;1711906;82;21192;-41
2021/04/23 09:10:15;;;;;;;7.33;4.65;;;;;;;10.25;61.07;100700.84;1735515;80;21132;-43
2021/04/23 09:12:42;;;;;;;7.42;4.33;;;;;;;10.28;61.50;100698.92;1733559;80;22022;-44
2021/04/23 09:15:24;;;;;;;8.43;3.70;;;;;;;10.34;60.96;100698.58;1735568;80;21204;-42
2021/04/23 09:18:10;;;;;;;7.35;4.20;;;;;;;10.36;61.26;100698.50;1733623;80;21185;-45
2021/04/23 09:20:42;;;;;;;6.80;3.70;;;;;;;10.44;61.23;100695.42;1737577;80;21265;-41
2021/04/23 09:23:21;;;;;;;6.03;4.03;;;;;;;10.50;61.15;100699.92;1732842;80;21137;-41
2021/04/23 09:25:52;;;;;;;6.75;3.40;;;;;;;10.54;60.83;100700.16;1732651;80;21941;-41
2021/04/23 09:28:41;;;;;;;5.67;3.92;;;;;;;10.61;61.20;100695.36;1730071;80;21644;-42
2021/04/23 09:31:29;;;;;;;5.08;2.92;;;;;;;10.66;60.62;100693.30;1736063;80;21171;-42
2021/04/23 09:34:05;;;;;;;4.47;3.35;;;;;;;10.73;61.00;100697.80;1734300;80;21102;-41
2021/04/23 09:36:44;;;;;;;7.83;3.50;;;;;;;10.85;61.04;100698.45;1737782;80;21129;-42
2021/04/23 09:39:20;;;;;;;6.53;3.83;;;;;;;10.94;59.49;100701.94;1732110;80;22070;-41
2021/04/23 09:42:01;;;;;;;7.30;4.12;;;;;;;10.97;57.58;100699.58;1731722;82;21145;-41
2021/04/23 09:44:45;;;;;;;9.25;4.10;;;;;;;10.92;56.31;100700.31;1736059;80;21142;-44
2021/04/23 09:47:19;;;;;;;6.97;3.72;;;;;;;10.82;56.62;100702.15;1730986;80;21121;-42
2021/04/23 09:49:55;;;;;;;5.28;3.60;;;;;;;10.82;57.42;100694.63;1733188;80;21395;-43
2021/04/23 09:52:25;;;;;;;5.80;3.10;;;;;;;10.88;57.58;100694.27;1737191;82;21145;-44
2021/04/23 09:54:59;;;;;;;6.87;3.65;;;;;;;10.94;57.26;100696.61;1732282;80;21161;-44
2021/04/23 09:57:33;;;;;;;5.62;4.00;;;;;;;10.98;57.17;100691.95;1739137;80;21145;-45
2021/04/23 10:00:06;;;;;;;5.37;3.12;;;;;;;11.01;56.50;100695.31;1735684;80;21187;-47
2021/04/23 10:02:34;;;;;;;5.78;3.60;;;;;;;11.01;57.08;100687.31;1736093;80;21145;-43
2021/04/23 10:05:04;;;;;;;5.67;2.87;;;;;;;11.04;56.80;100688.47;1703898;82;21140;-44
2021/04/23 10:07:32;;;;;;;7.10;3.83;;;;;;;11.13;56.94;100682.20;1690212;83;21140;-43
2021/04/23 10:10:26;;;;;;;5.53;2.93;;;;;;;11.20;56.34;100672.42;1686082;83;21154;-42
2021/04/23 10:13:50;;;;;;;4.12;2.67;;;;;;;11.32;54.87;100676.20;1795345;78;24960;-43
2021/04/23 10:16:26;;;;;;;4.15;2.67;;;;;;;11.31;54.49;100666.45;1749906;80;21144;-45
2021/04/23 10:18:54;;;;;;;9.33;3.12;;;;;;;11.37;54.44;100662.09;1727910;82;21182;-41
2021/04/23 10:21:22;;;;;;;7.53;2.95;;;;;;;11.47;53.33;100659.75;1760320;81;21186;-42
2021/04/23 10:23:50;;;;;;;3.80;2.40;;;;;;;11.57;52.95;100654.73;1760963;80;21427;-40
2021/04/23 10:26:17;;;;;;;9.08;4.33;;;;;;;11.68;51.60;100653.59;1758002;80;21696;-40
2021/04/23 10:28:45;;;;;;;7.15;4.20;;;;;;;11.73;53.37;100656.84;1757945;80;21534;-42
2021/04/23 10:31:13;;;;;;;7.55;2.60;;;;;;;11.65;52.24;100649.77;1722494;81;21736;-46
2021/04/23 10:33:41;;;;;;;4.50;2.95;;;;;;;11.66;51.95;100648.33;1756606;80;21162;-39
2021/04/23 10:36:09;;;;;;;6.67;2.92;;;;;;;11.68;49.00;100649.09;1754627;80;21118;-45
2021/04/23 10:38:37;;;;;;;6.87;2.95;;;;;;;11.66;47.73;100648.81;1702100;82;21289;-44
2021/04/23 10:41:08;;;;;;;5.15;2.58;;;;;;;11.59;46.77;100652.80;1760472;80;21185;-45
2021/04/23 10:43:36;;;;;;;6.97;3.10;;;;;;;11.54;48.36;100650.42;1757765;80;21134;-42
2021/04/23 10:46:12;;;;;;;6.70;2.70;;;;;;;11.48;48.13;100653.45;1756976;80;21167;-41
2021/04/23 10:48:41;;;;;;;6.25;2.92;;;;;;;11.46;48.12;100644.20;1754584;80;21126;-41
2021/04/23 10:51:20;;;;;;;5.95;2.60;;;;;;;11.44;48.27;100650.56;1757858;80;21145;-42
2021/04/23 10:53:52;;;;;;;6.90;2.80;;;;;;;11.46;48.49;100649.55;1754707;80;21124;-42
2021/04/23 10:56:32;;;;;;;7.67;2.92;;;;;;;11.53;49.07;100654.03;1702379;82;21313;-43
2021/04/23 10:59:23;;;;;;;4.45;2.40;;;;;;;11.58;48.19;100647.08;1758837;80;21134;-42
2021/04/23 11:01:52;;;;;;;4.75;2.15;;;;;;;11.65;48.14;100644.43;1756219;80;21132;-39
2021/04/23 11:04:20;;;;;;;3.95;2.35;;;;;;;11.74;48.07;100645.19;1759566;80;21179;-42
2021/04/23 11:07:03;;;;;;;5.70;2.67;;;;;;;11.87;48.50;100641.36;1707063;82;21172;-45
2021/04/23 11:09:32;;;;;;;4.22;2.37;;;;;;;12.01;48.32;100637.33;1735404;80;21204;-42
2021/04/23 11:12:12;;;;;;;3.17;1.75;;;;;;;12.18;46.91;100637.63;1756640;80;21170;-42
2021/04/23 11:14:42;;;;;;;4.25;1.90;;;;;;;12.28;46.25;100632.56;1758497;80;21162;-41
2021/04/23 11:17:25;;;;;;;4.85;2.08;;;;;;;12.37;46.37;100635.97;1722967;81;21166;-54
2021/04/23 11:19:53;;;;;;;2.72;2.10;;;;;;;12.44;46.18;100637.79;1757280;79;21153;-43
2021/04/23 11:22:28;;;;;;;4.58;2.15;;;;;;;12.50;46.42;100640.09;1723772;81;21551;-43
2021/04/23 11:25:16;;;;;;;2.85;1.80;;;;;;;12.56;46.71;100638.34;1755907;80;21110;-45
2021/04/23 11:28:08;;;;;;;2.45;1.90;;;;;;;12.60;45.19;100628.30;1757421;80;21256;-46
2021/04/23 11:31:01;;;;;;;3.87;1.90;;;;;;;12.61;43.67;100628.70;1758701;80;21153;-44
2021/04/23 11:34:22;;;;;;;4.67;2.33;;;;;;;12.59;43.17;100622.58;1757419;80;21193;-42
2021/04/23 11:38:04;;;;;;;3.80;2.10;;;;;;;12.50;42.91;100623.56;1712146;82;21614;-44
2021/04/23 11:40:32;;;;;;;3.98;1.90;;;;;;;12.37;44.23;100615.92;1712145;82;21274;-42
2021/04/23 11:43:02;;;;;;;3.33;1.70;;;;;;;12.36;43.90;100616.03;1712178;82;21122;-41
2021/04/23 11:45:34;;;;;;;4.37;2.52;;;;;;;12.39;44.07;100624.70;1715691;82;21336;-42
2021/04/23 11:48:11;;;;;;;4.42;1.75;;;;;;;12.43;43.08;100619.55;1715595;82;21118;-41
2021/04/23 11:50:43;;;;;;;6.00;2.00;;;;;;;12.42;44.20;100615.63;1713827;82;21154;-41
2021/04/23 11:53:12;;;;;;;6.58;2.10;;;;;;;12.44;43.06;100613.23;1721421;82;21785;-42
2021/04/23 11:55:50;;;;;;;3.52;1.75;;;;;;;12.46;43.01;100607.80;1716548;82;21165;-42